NCAR-RAP Real-Time Weather Data

Output produced by METARs form (16 April 2014  13:30 UTC)
found at http://weather.rap.ucar.edu/surface/
 
Conditions at: KSDF observed 16 April 2014  12:56 UTC
Temperature: 2.2°C (36°F)
Dewpoint: -7.2°C (19°F) [RH = 50%]
Pressure (altimeter): 30.39 inches Hg (1029.2 mb)
[Sea-level pressure: 1029.3 mb]
Winds: from the ESE (110 degrees) at 15 MPH (13 knots; 6.8 m/s)
gusting to 21 MPH (18 knots; 9.4 m/s)
Visibility: 10 or more miles (16+ km)
Ceiling: at least 12,000 feet AGL
Clouds: few clouds at 20000 feet AGL
scattered clouds at 25000 feet AGL
Present Weather: no significant weather observed at this time
KSDF 161256Z 11013G18KT 10SM FEW200 SCT250 02/M07 A3039 RMK AO2 SLP293 T00221072